Time;durP1;ratioP1;P1;durP2;ratioP2;P2;SDS_P1;SDS_P2;PMS_P1;PMS_P2;Temp;Humidity;BMP_temperature;BMP_pressure;BME280_temperature;BME280_humidity;BME280_pressure;Samples;Min_cycle;Max_cycle;Signal;HPM_P1;HPM_P2
2023/07/25 00:01:55;;;;;;;3.20;2.20;;;;;;;16.02;100.00;97833.27;106510;1272;24079;-60
2023/07/25 00:04:23;;;;;;;3.50;2.20;;;;;;;16.01;100.00;97836.84;106484;1272;99289;-62
2023/07/25 00:06:52;;;;;;;2.80;2.10;;;;;;;16.02;100.00;97849.39;106455;1275;22602;-62
2023/07/25 00:09:21;;;;;;;2.90;1.90;;;;;;;16.03;100.00;97845.61;106637;1265;24383;-60
2023/07/25 00:11:50;;;;;;;2.70;1.90;;;;;;;16.02;100.00;97829.90;106615;1272;99292;-61
2023/07/25 00:14:18;;;;;;;3.60;2.40;;;;;;;16.02;100.00;97824.45;106518;1271;25240;-62
2023/07/25 00:16:47;;;;;;;3.20;2.60;;;;;;;16.03;100.00;97822.65;106439;1273;99079;-62
2023/07/25 00:19:16;;;;;;;3.40;2.40;;;;;;;16.04;100.00;97827.27;106556;1272;22534;-61
2023/07/25 00:21:45;;;;;;;2.70;2.00;;;;;;;16.04;100.00;97835.67;106534;1273;23014;-60
2023/07/25 00:24:14;;;;;;;5.40;2.50;;;;;;;16.02;100.00;97818.13;106387;1271;23883;-62
2023/07/25 00:26:43;;;;;;;6.50;2.50;;;;;;;16.01;100.00;97817.50;106472;1272;22524;-60
2023/07/25 00:29:12;;;;;;;3.40;2.00;;;;;;;16.00;100.00;97816.05;106381;1272;99219;-60
2023/07/25 00:31:41;;;;;;;3.50;2.20;;;;;;;15.98;100.00;97812.05;106740;1273;22767;-60
2023/07/25 00:34:10;;;;;;;4.10;2.30;;;;;;;15.97;100.00;97814.77;106488;1273;99350;-60
2023/07/25 00:36:39;;;;;;;3.30;2.50;;;;;;;15.99;100.00;97814.77;106549;1273;22775;-60
2023/07/25 00:39:07;;;;;;;6.70;2.20;;;;;;;16.00;100.00;97824.01;106427;1275;22535;-60
2023/07/25 00:41:37;;;;;;;5.70;2.50;;;;;;;16.01;100.00;97838.91;106377;1268;98474;-61
2023/07/25 00:44:06;;;;;;;2.20;1.60;;;;;;;16.02;100.00;97841.82;106494;1274;22539;-61
2023/07/25 00:46:35;;;;;;;3.90;2.40;;;;;;;16.03;100.00;97849.10;110152;1272;99138;-61
2023/07/25 00:49:05;;;;;;;3.90;1.90;;;;;;;16.04;100.00;97840.95;110168;1263;22308;-61
2023/07/25 00:51:35;;;;;;;7.50;1.80;;;;;;;16.06;100.00;97836.39;107816;1274;22523;-60
2023/07/25 00:54:04;;;;;;;3.90;2.30;;;;;;;16.06;100.00;97830.58;106382;1265;99188;-59
2023/07/25 00:56:33;;;;;;;2.50;1.80;;;;;;;16.06;100.00;97832.80;110234;1272;23204;-59
2023/07/25 00:59:01;;;;;;;3.30;1.80;;;;;;;16.08;100.00;97833.04;110172;1273;99652;-60
2023/07/25 01:01:30;;;;;;;2.80;2.20;;;;;;;16.11;100.00;97832.91;107038;1277;22584;-61
2023/07/25 01:03:59;;;;;;;3.70;1.80;;;;;;;16.11;100.00;97834.60;106413;1277;99345;-60
2023/07/25 01:06:29;;;;;;;3.50;2.10;;;;;;;16.11;100.00;97830.38;106479;1274;22521;-61
2023/07/25 01:08:58;;;;;;;3.00;1.90;;;;;;;16.09;100.00;97829.05;106546;1275;24213;-61
2023/07/25 01:11:28;;;;;;;3.00;1.70;;;;;;;16.07;100.00;97826.12;106429;1272;100244;-61
2023/07/25 01:13:57;;;;;;;5.60;2.10;;;;;;;16.04;100.00;97821.64;106625;1272;24672;-61
2023/07/25 01:16:28;;;;;;;4.50;1.90;;;;;;;16.02;100.00;97824.44;106422;1272;99445;-61
2023/07/25 01:18:58;;;;;;;3.60;2.10;;;;;;;16.01;100.00;97831.81;106491;1272;22544;-60
2023/07/25 01:21:27;;;;;;;3.00;2.20;;;;;;;16.01;100.00;97833.35;106581;1273;22539;-60
2023/07/25 01:24:03;;;;;;;2.90;2.20;;;;;;;16.01;100.00;97836.48;106435;1278;99121;-62
2023/07/25 01:26:31;;;;;;;2.90;2.30;;;;;;;16.03;100.00;97832.33;106604;1274;25345;-61
2023/07/25 01:29:00;;;;;;;2.80;2.10;;;;;;;16.04;100.00;97834.10;106304;1275;99647;-61
2023/07/25 01:31:32;;;;;;;2.50;1.60;;;;;;;16.04;100.00;97836.23;106448;1273;25349;-58
2023/07/25 01:34:01;;;;;;;2.70;1.90;;;;;;;16.02;100.00;97838.84;108218;1280;99395;-64
2023/07/25 01:36:30;;;;;;;3.40;2.10;;;;;;;15.99;100.00;97850.77;106537;1276;25282;-60
2023/07/25 01:38:59;;;;;;;7.40;2.20;;;;;;;15.94;100.00;97854.29;106642;1275;22533;-61
2023/07/25 01:41:28;;;;;;;3.70;2.10;;;;;;;15.86;100.00;97855.16;106395;1274;99119;-61
2023/07/25 01:43:57;;;;;;;2.30;2.10;;;;;;;15.81;100.00;97857.27;106375;1280;22588;-62
2023/07/25 01:46:26;;;;;;;4.20;1.70;;;;;;;15.76;100.00;97857.23;106491;1279;99465;-60
2023/07/25 01:48:55;;;;;;;3.20;2.10;;;;;;;15.70;100.00;97859.19;106507;1277;22529;-61
2023/07/25 01:51:23;;;;;;;3.30;1.80;;;;;;;15.66;100.00;97861.15;106576;1280;25429;-60
2023/07/25 01:53:53;;;;;;;3.70;1.80;;;;;;;15.62;100.00;97865.18;106422;1272;99142;-60
2023/07/25 01:56:22;;;;;;;4.20;2.00;;;;;;;15.58;100.00;97869.95;106612;1272;23093;-61
2023/07/25 01:58:51;;;;;;;4.00;2.20;;;;;;;15.54;100.00;97876.36;106354;1259;99647;-60
2023/07/25 02:01:20;;;;;;;3.00;2.10;;;;;;;15.50;100.00;97880.98;106590;1274;25236;-61
2023/07/25 02:03:49;;;;;;;2.80;1.90;;;;;;;15.47;100.00;97880.86;106456;1279;99322;-61
2023/07/25 02:06:18;;;;;;;3.90;2.30;;;;;;;15.45;100.00;97881.05;106550;1273;22534;-61
2023/07/25 02:08:47;;;;;;;3.90;2.60;;;;;;;15.48;100.00;97884.27;106569;1273;22583;-62
2023/07/25 02:11:16;;;;;;;4.40;2.70;;;;;;;15.57;100.00;97891.45;106486;1277;99174;-63
2023/07/25 02:13:45;;;;;;;4.10;2.50;;;;;;;15.65;100.00;97889.66;106542;1277;25516;-60
2023/07/25 02:16:14;;;;;;;4.70;2.70;;;;;;;15.71;100.00;97885.25;106500;1274;99226;-62
2023/07/25 02:18:42;;;;;;;4.10;2.40;;;;;;;15.72;100.00;97882.04;106486;1274;22532;-62
2023/07/25 02:21:11;;;;;;;4.90;2.30;;;;;;;15.72;100.00;97883.09;106584;1276;25427;-62
2023/07/25 02:23:40;;;;;;;2.90;2.30;;;;;;;15.70;100.00;97883.25;106463;1275;99162;-60
2023/07/25 02:26:09;;;;;;;2.70;1.80;;;;;;;15.67;100.00;97886.48;106553;1275;22527;-61
2023/07/25 02:28:37;;;;;;;2.70;2.00;;;;;;;15.62;100.00;97891.33;106434;1274;99749;-61
2023/07/25 02:31:06;;;;;;;4.80;2.30;;;;;;;15.57;100.00;97899.92;106747;1274;25237;-61
2023/07/25 02:33:35;;;;;;;3.90;2.40;;;;;;;15.53;100.00;97900.81;106530;1273;25481;-63
2023/07/25 02:36:05;;;;;;;2.20;1.60;;;;;;;15.51;100.00;97895.79;106502;1276;98984;-61
2023/07/25 02:38:34;;;;;;;3.50;2.20;;;;;;;15.50;100.00;97900.77;106417;1273;25339;-60
2023/07/25 02:41:02;;;;;;;3.10;2.00;;;;;;;15.52;100.00;97900.98;106501;1274;99178;-60
2023/07/25 02:43:31;;;;;;;2.80;2.40;;;;;;;15.56;100.00;97905.83;106433;1274;23904;-59
2023/07/25 02:46:00;;;;;;;2.80;2.10;;;;;;;15.63;100.00;97912.87;106524;1279;99331;-63
2023/07/25 02:48:29;;;;;;;3.80;2.30;;;;;;;15.69;100.00;97915.05;106534;1273;25528;-61
2023/07/25 02:50:57;;;;;;;3.00;2.30;;;;;;;15.75;100.00;97914.61;106529;1276;24219;-61
2023/07/25 02:53:26;;;;;;;3.00;2.30;;;;;;;15.81;100.00;97922.34;106387;1275;99686;-61
2023/07/25 02:55:55;;;;;;;2.80;2.40;;;;;;;15.85;100.00;97924.02;106530;1274;22529;-62
2023/07/25 02:58:24;;;;;;;4.10;2.40;;;;;;;15.88;100.00;97920.73;106486;1279;99359;-62
2023/07/25 03:00:53;;;;;;;4.00;2.60;;;;;;;15.91;100.00;97918.55;106537;1273;25360;-62
2023/07/25 03:03:22;;;;;;;4.70;2.40;;;;;;;15.92;100.00;97917.94;106606;1273;22531;-61
2023/07/25 03:05:51;;;;;;;2.90;2.40;;;;;;;15.92;100.00;97917.38;106454;1279;99126;-61
2023/07/25 03:08:20;;;;;;;5.50;2.50;;;;;;;15.91;100.00;97911.06;106573;1273;22562;-61
2023/07/25 03:10:48;;;;;;;4.30;2.50;;;;;;;15.88;100.00;97918.60;106566;1279;99373;-61
2023/07/25 03:13:17;;;;;;;4.00;2.60;;;;;;;15.87;100.00;97915.36;106422;1271;23790;-60
2023/07/25 03:15:46;;;;;;;2.50;2.30;;;;;;;15.90;100.00;97917.09;106549;1275;24332;-64
2023/07/25 03:18:15;;;;;;;4.90;2.30;;;;;;;15.91;100.00;97915.72;106496;1273;22537;-62
2023/07/25 03:20:46;;;;;;;3.10;2.10;;;;;;;15.94;100.00;97919.01;106587;1272;25529;-60
2023/07/25 03:23:15;;;;;;;2.60;2.30;;;;;;;15.98;100.00;97917.76;106417;1276;99731;-62
2023/07/25 03:25:44;;;;;;;2.30;2.10;;;;;;;16.02;100.00;97916.94;106405;1279;22642;-61
2023/07/25 03:28:13;;;;;;;3.30;2.10;;;;;;;16.07;100.00;97917.38;106574;1273;99274;-61
2023/07/25 03:30:42;;;;;;;5.00;2.30;;;;;;;16.13;100.00;97920.29;106568;1274;22543;-62
2023/07/25 03:33:10;;;;;;;2.50;2.20;;;;;;;16.19;100.00;97924.39;106523;1275;22530;-60
2023/07/25 03:35:39;;;;;;;3.30;2.10;;;;;;;16.23;100.00;97925.05;106472;1276;99180;-60
2023/07/25 03:38:08;;;;;;;2.80;2.10;;;;;;;16.27;100.00;97921.83;106522;1275;22536;-61
2023/07/25 03:40:37;;;;;;;5.00;2.80;;;;;;;16.30;100.00;97924.66;106497;1273;99150;-60
2023/07/25 03:43:09;;;;;;;4.20;2.50;;;;;;;16.31;100.00;97920.61;106415;1275;23067;-61
2023/07/25 03:45:39;;;;;;;3.50;2.50;;;;;;;16.31;100.00;97923.58;106460;1273;22517;-60
2023/07/25 03:48:08;;;;;;;3.60;2.30;;;;;;;16.33;100.00;97925.79;106692;1275;99609;-60
2023/07/25 03:50:37;;;;;;;4.40;2.50;;;;;;;16.34;100.00;97929.37;106511;1280;23042;-61
2023/07/25 03:53:08;;;;;;;7.20;3.30;;;;;;;16.35;100.00;97929.47;106383;1279;99369;-60
2023/07/25 03:55:37;;;;;;;4.90;2.90;;;;;;;16.36;100.00;97930.43;106541;1272;24198;-61
2023/07/25 03:58:05;;;;;;;3.30;2.70;;;;;;;16.38;100.00;97929.91;106478;1273;99249;-61
2023/07/25 04:00:34;;;;;;;2.90;2.20;;;;;;;16.38;100.00;97931.48;106532;1274;22550;-60
2023/07/25 04:03:03;;;;;;;3.50;2.80;;;;;;;16.38;100.00;97932.67;106624;1273;22650;-62
2023/07/25 04:05:42;;;;;;;3.20;2.40;;;;;;;16.40;100.00;97933.45;106327;1272;99397;-60
2023/07/25 04:08:11;;;;;;;4.60;2.80;;;;;;;16.40;100.00;97939.38;106405;1279;22529;-60
2023/07/25 04:10:40;;;;;;;2.80;2.30;;;;;;;16.39;100.00;97940.87;106529;1272;99140;-61
2023/07/25 04:13:09;;;;;;;3.00;2.20;;;;;;;16.39;100.00;97941.91;106434;1274;22526;-62
2023/07/25 04:15:37;;;;;;;3.60;2.10;;;;;;;16.43;100.00;97945.23;106595;1276;24341;-61
2023/07/25 04:18:06;;;;;;;5.70;2.50;;;;;;;16.47;100.00;97948.49;106406;1278;98954;-61
2023/07/25 04:20:35;;;;;;;8.50;3.30;;;;;;;16.50;100.00;97948.52;106992;1257;25616;-61
2023/07/25 04:23:04;;;;;;;2.40;2.20;;;;;;;16.50;100.00;97944.69;106491;1273;99094;-61
2023/07/25 04:25:33;;;;;;;2.50;2.20;;;;;;;16.51;100.00;97944.41;106446;1275;22526;-61
2023/07/25 04:28:05;;;;;;;3.70;1.80;;;;;;;16.56;100.00;97939.52;106450;1279;99292;-64
2023/07/25 04:30:34;;;;;;;3.90;1.80;;;;;;;16.57;100.00;97941.88;106490;1279;24213;-60
2023/07/25 04:33:03;;;;;;;3.70;1.80;;;;;;;16.59;100.00;97938.63;106571;1276;25237;-61
2023/07/25 04:35:32;;;;;;;4.90;2.20;;;;;;;16.59;100.00;97935.14;106305;1273;99354;-62
2023/07/25 04:38:01;;;;;;;3.80;2.00;;;;;;;16.65;100.00;97935.67;106483;1274;24321;-62
2023/07/25 04:40:29;;;;;;;2.90;1.90;;;;;;;16.74;100.00;97940.69;106480;1279;99376;-62
2023/07/25 04:42:58;;;;;;;2.10;1.80;;;;;;;16.84;100.00;97941.68;106442;1279;22557;-61
2023/07/25 04:45:27;;;;;;;3.40;1.90;;;;;;;16.90;100.00;97947.19;106475;1271;22530;-60
2023/07/25 04:47:55;;;;;;;8.00;1.70;;;;;;;16.93;100.00;97945.27;106455;1274;99169;-64
2023/07/25 04:50:24;;;;;;;3.00;1.90;;;;;;;16.93;100.00;97942.70;106486;1273;24300;-60
2023/07/25 04:52:53;;;;;;;2.90;1.80;;;;;;;16.93;100.00;97943.23;106369;1275;99105;-63
2023/07/25 04:55:22;;;;;;;3.30;2.00;;;;;;;16.98;100.00;97948.98;106541;1277;24611;-61
2023/07/25 04:57:51;;;;;;;3.20;2.00;;;;;;;16.98;100.00;97947.04;106503;1271;101090;-60
2023/07/25 05:00:20;;;;;;;4.90;2.20;;;;;;;16.98;100.00;97950.36;106500;1273;25359;-60
2023/07/25 05:02:50;;;;;;;2.30;1.80;;;;;;;17.05;100.00;97944.02;106446;1276;24377;-60
2023/07/25 05:05:19;;;;;;;4.60;1.80;;;;;;;17.13;100.00;97945.91;106374;1273;99112;-61
2023/07/25 05:07:47;;;;;;;2.70;1.60;;;;;;;17.20;100.00;97943.93;106542;1274;22527;-61
2023/07/25 05:10:16;;;;;;;2.50;1.80;;;;;;;17.28;100.00;97945.75;106316;1273;239740;-61
2023/07/25 05:12:45;;;;;;;1.90;1.70;;;;;;;17.28;100.00;97944.25;106644;1274;22536;-60
2023/07/25 05:15:14;;;;;;;2.60;1.80;;;;;;;17.34;100.00;97944.09;106574;1257;26513;-60
2023/07/25 05:17:43;;;;;;;2.40;2.00;;;;;;;17.41;100.00;97944.21;106524;1273;99103;-61
2023/07/25 05:20:12;;;;;;;3.60;2.00;;;;;;;17.43;100.00;97948.38;106553;1274;22599;-65
2023/07/25 05:22:41;;;;;;;3.10;2.00;;;;;;;17.50;100.00;97944.55;106434;1273;99687;-61
2023/07/25 05:25:10;;;;;;;2.60;2.00;;;;;;;17.53;100.00;97947.73;106536;1273;22608;-60
2023/07/25 05:27:39;;;;;;;5.40;1.70;;;;;;;17.62;100.00;97946.10;106464;1273;25404;-60
2023/07/25 05:30:11;;;;;;;2.40;2.00;;;;;;;17.69;100.00;97947.11;106548;1273;99465;-60
2023/07/25 05:32:42;;;;;;;2.10;1.90;;;;;;;17.71;100.00;97947.84;106451;1274;24381;-61
2023/07/25 05:35:11;;;;;;;3.80;1.70;;;;;;;17.83;100.00;97953.31;106408;1273;99857;-62
2023/07/25 05:37:40;;;;;;;2.60;1.90;;;;;;;17.94;100.00;97954.89;106560;1274;22548;-60
2023/07/25 05:40:09;;;;;;;2.10;1.80;;;;;;;18.06;100.00;97955.91;106399;1274;99268;-60
2023/07/25 05:42:38;;;;;;;2.80;1.90;;;;;;;18.12;100.00;97959.51;106475;1273;25452;-60
2023/07/25 05:45:07;;;;;;;3.20;1.50;;;;;;;18.14;100.00;97959.02;106573;1273;23888;-59
2023/07/25 05:47:36;;;;;;;3.20;1.70;;;;;;;18.12;100.00;97964.86;106467;1269;99190;-63
2023/07/25 05:50:06;;;;;;;3.20;1.80;;;;;;;18.03;100.00;97964.84;106459;1273;22541;-62
2023/07/25 05:52:36;;;;;;;2.80;1.70;;;;;;;18.00;100.00;97968.49;106632;1270;99464;-59
2023/07/25 05:55:06;;;;;;;2.30;1.70;;;;;;;18.11;100.00;97973.67;106570;1273;22534;-60
2023/07/25 05:57:37;;;;;;;2.30;1.90;;;;;;;18.26;100.00;97975.99;106632;1277;22527;-64
2023/07/25 06:00:08;;;;;;;3.40;2.10;;;;;;;18.39;100.00;97977.65;106485;1273;97971;-64
2023/07/25 06:02:38;;;;;;;1.60;1.50;;;;;;;18.41;100.00;97977.04;106563;1272;25399;-59
2023/07/25 06:05:07;;;;;;;2.90;1.80;;;;;;;18.40;100.00;97982.61;106504;1273;99292;-62
2023/07/25 06:07:36;;;;;;;3.10;1.80;;;;;;;18.41;100.00;97984.04;106585;1274;25345;-64
2023/07/25 06:10:06;;;;;;;3.40;2.40;;;;;;;18.34;100.00;97982.54;106591;1274;99333;-61
2023/07/25 06:12:35;;;;;;;2.80;1.60;;;;;;;18.34;100.00;97990.77;106535;1273;25378;-61
2023/07/25 06:15:04;;;;;;;3.50;1.60;;;;;;;18.40;100.00;97993.87;106540;1273;25296;-60
2023/07/25 06:17:36;;;;;;;3.80;2.00;;;;;;;18.52;100.00;97991.83;106444;1273;99286;-61
2023/07/25 06:20:09;;;;;;;4.90;1.70;;;;;;;18.59;100.00;97990.59;106732;1276;22792;-62
2023/07/25 06:22:38;;;;;;;2.90;1.80;;;;;;;18.69;100.00;97991.17;106434;1272;99140;-60
2023/07/25 06:25:08;;;;;;;2.80;1.40;;;;;;;18.82;100.00;97992.38;106504;1273;22643;-60
2023/07/25 06:27:37;;;;;;;4.90;1.50;;;;;;;18.89;100.00;97986.61;106551;1276;25409;-61
2023/07/25 06:30:07;;;;;;;1.80;1.50;;;;;;;19.08;100.00;97985.83;106530;1273;99309;-61
2023/07/25 06:32:37;;;;;;;2.00;1.30;;;;;;;19.26;100.00;97988.42;106646;1274;24213;-60
2023/07/25 06:35:07;;;;;;;2.60;1.90;;;;;;;19.48;100.00;97986.04;106427;1272;99665;-61
2023/07/25 06:37:37;;;;;;;1.80;1.30;;;;;;;19.62;100.00;97987.02;106591;1274;24044;-60
2023/07/25 06:40:06;;;;;;;1.40;1.10;;;;;;;19.54;100.00;97983.56;106592;1273;99306;-60
2023/07/25 06:42:39;;;;;;;1.70;1.30;;;;;;;19.40;100.00;97987.91;106537;1273;23003;-59
2023/07/25 06:45:11;;;;;;;1.20;1.00;;;;;;;19.34;99.99;97988.04;106529;1273;25338;-60
2023/07/25 06:47:48;;;;;;;2.20;1.30;;;;;;;18.98;99.58;97988.16;106417;1274;99518;-61
2023/07/25 06:50:21;;;;;;;1.20;1.10;;;;;;;18.53;99.92;97995.99;106785;1273;24275;-59
2023/07/25 06:52:52;;;;;;;1.80;1.10;;;;;;;18.33;100.00;97995.32;106922;1273;99477;-63
2023/07/25 06:55:24;;;;;;;1.40;1.20;;;;;;;18.26;100.00;97997.52;106930;1273;24266;-63
2023/07/25 06:57:53;;;;;;;1.50;1.00;;;;;;;18.31;100.00;97996.58;106541;1273;99303;-62
2023/07/25 07:00:22;;;;;;;4.50;1.40;;;;;;;18.49;100.00;98001.35;106528;1273;22521;-63
2023/07/25 07:02:51;;;;;;;2.10;1.30;;;;;;;18.69;100.00;97993.22;106474;1273;25250;-63
2023/07/25 07:05:20;;;;;;;1.50;1.20;;;;;;;18.92;100.00;98001.70;106429;1273;99136;-66
2023/07/25 07:07:53;;;;;;;1.40;1.20;;;;;;;19.24;100.00;98001.66;106484;1273;25346;-65
2023/07/25 07:10:21;;;;;;;4.90;1.50;;;;;;;19.54;100.00;98004.41;106471;1273;101884;-69
2023/07/25 07:12:53;;;;;;;2.10;1.20;;;;;;;19.99;100.00;98003.16;106588;1261;22554;-67
2023/07/25 07:15:24;;;;;;;3.60;1.20;;;;;;;20.66;100.00;98006.63;106511;1273;22523;-68
2023/07/25 07:17:53;;;;;;;1.30;1.00;;;;;;;21.29;100.00;98005.79;106675;1273;99199;-63
2023/07/25 07:20:22;;;;;;;1.90;0.90;;;;;;;21.63;100.00;98010.80;106588;1273;22655;-63
2023/07/25 07:22:54;;;;;;;2.80;1.60;;;;;;;22.11;100.00;98010.65;106393;1273;99091;-61
2023/07/25 07:25:22;;;;;;;1.40;1.10;;;;;;;22.44;98.75;98013.67;106499;1277;22657;-61
2023/07/25 07:27:51;;;;;;;3.80;1.30;;;;;;;22.40;98.57;98018.95;106428;1271;99256;-63
2023/07/25 07:30:20;;;;;;;1.60;1.00;;;;;;;22.40;98.45;98021.15;106503;1273;22528;-71
2023/07/25 07:32:50;;;;;;;1.50;0.80;;;;;;;22.43;98.58;98024.66;106454;1270;24473;-62
2023/07/25 07:35:32;;;;;;;1.90;0.90;;;;;;;22.37;97.83;98026.16;106725;1274;99661;-64
2023/07/25 07:38:03;;;;;;;1.50;1.00;;;;;;;22.40;99.03;98027.53;106548;1274;23008;-63
2023/07/25 07:40:37;;;;;;;1.40;0.80;;;;;;;23.01;100.00;98030.46;106381;1272;99776;-60
2023/07/25 07:43:06;;;;;;;2.30;0.80;;;;;;;23.51;98.79;98032.61;106598;1272;22723;-62
2023/07/25 07:45:38;;;;;;;1.50;1.10;;;;;;;23.56;96.14;98030.34;106580;1277;22541;-61
2023/07/25 07:48:09;;;;;;;1.30;0.90;;;;;;;23.61;97.61;98033.50;106572;1273;99691;-60
2023/07/25 07:50:38;;;;;;;4.60;0.90;;;;;;;24.06;97.98;98034.94;106628;1273;25593;-62
2023/07/25 07:53:06;;;;;;;2.60;0.90;;;;;;;24.56;96.39;98042.29;106561;1268;98967;-62
2023/07/25 07:55:38;;;;;;;2.50;0.90;;;;;;;24.49;93.32;98044.08;106437;1274;24040;-62
2023/07/25 07:58:07;;;;;;;1.50;0.70;;;;;;;24.04;92.25;98050.77;106817;1274;99563;-65
2023/07/25 08:00:36;;;;;;;2.10;0.90;;;;;;;23.52;92.11;98050.16;106465;1273;22530;-65
2023/07/25 08:03:04;;;;;;;1.30;0.90;;;;;;;22.97;91.95;98053.76;106726;1272;25371;-63
2023/07/25 08:05:33;;;;;;;1.70;0.80;;;;;;;22.75;94.57;98061.80;106407;1273;99379;-62
2023/07/25 08:08:02;;;;;;;1.80;0.90;;;;;;;23.60;97.58;98063.98;106534;1274;27570;-63
2023/07/25 08:10:31;;;;;;;1.70;1.00;;;;;;;24.23;94.14;98073.93;106510;1273;99850;-60
2023/07/25 08:13:00;;;;;;;2.70;0.70;;;;;;;24.59;93.02;98078.05;106578;1273;22655;-61
2023/07/25 08:15:29;;;;;;;2.10;1.00;;;;;;;24.73;87.95;98088.91;106691;1273;23918;-61
2023/07/25 08:17:57;;;;;;;2.80;0.70;;;;;;;24.58;85.92;98095.33;106480;1273;99340;-62
2023/07/25 08:20:26;;;;;;;1.30;0.60;;;;;;;24.12;85.90;98102.07;106519;1271;24221;-62
2023/07/25 08:22:55;;;;;;;0.90;0.70;;;;;;;23.84;87.70;98102.31;106165;1276;99449;-61
2023/07/25 08:25:24;;;;;;;1.90;0.70;;;;;;;23.97;88.71;98104.25;106535;1274;25919;-60
2023/07/25 08:27:54;;;;;;;1.40;0.70;;;;;;;24.07;89.38;98101.69;106484;1272;99179;-66
2023/07/25 08:30:26;;;;;;;1.70;0.60;;;;;;;24.59;89.46;98100.38;106622;1272;22527;-61
2023/07/25 08:32:55;;;;;;;0.80;0.70;;;;;;;25.32;89.69;98090.19;106662;1273;22559;-60
2023/07/25 08:35:24;;;;;;;1.80;0.70;;;;;;;25.75;87.03;98083.05;106374;1279;99063;-61
2023/07/25 08:37:52;;;;;;;2.70;0.70;;;;;;;25.94;83.84;98079.69;106381;1279;22530;-61
2023/07/25 08:40:21;;;;;;;1.50;0.60;;;;;;;26.22;86.44;98079.20;106421;1272;99165;-62
2023/07/25 08:42:55;;;;;;;1.70;0.80;;;;;;;27.28;88.00;98068.51;106473;1274;23716;-64
2023/07/25 08:45:26;;;;;;;1.10;0.40;;;;;;;28.50;87.68;98069.02;106364;1274;25431;-61
2023/07/25 08:48:00;;;;;;;6.10;0.60;;;;;;;29.75;87.85;98062.40;106328;1273;99647;-59
2023/07/25 08:50:32;;;;;;;2.80;0.50;;;;;;;31.00;86.49;98055.11;106591;1273;22659;-62
2023/07/25 08:53:10;;;;;;;2.00;0.70;;;;;;;32.03;85.20;98056.53;106931;1273;99503;-63
2023/07/25 08:55:41;;;;;;;1.60;0.60;;;;;;;32.95;82.91;98052.81;106372;1274;22661;-62
2023/07/25 08:58:10;;;;;;;6.70;0.90;;;;;;;33.72;81.23;98049.04;106351;1273;99633;-61
2023/07/25 09:00:43;;;;;;;1.30;0.40;;;;;;;34.14;80.27;98056.75;106300;1277;22533;-62
2023/07/25 09:03:12;;;;;;;0.90;0.40;;;;;;;34.76;79.84;98058.91;106419;1274;22630;-63
2023/07/25 09:05:42;;;;;;;2.20;0.70;;;;;;;35.39;79.54;98056.61;106355;1273;99822;-62
2023/07/25 09:08:11;;;;;;;1.20;0.40;;;;;;;35.28;75.79;98056.73;106398;1276;22524;-61
2023/07/25 09:10:43;;;;;;;2.30;0.60;;;;;;;34.92;74.37;98058.87;106288;1270;99540;-61
2023/07/25 09:13:14;;;;;;;1.60;0.50;;;;;;;34.98;75.47;98059.73;106359;1277;22562;-59
2023/07/25 09:15:43;;;;;;;2.10;0.60;;;;;;;35.64;72.51;98065.76;106344;1276;22597;-60
2023/07/25 09:18:13;;;;;;;1.70;0.90;;;;;;;36.01;69.45;98065.75;106287;1273;98778;-60
2023/07/25 09:20:41;;;;;;;2.00;0.60;;;;;;;35.26;66.61;98065.96;106396;1273;26560;-63
2023/07/25 09:23:19;;;;;;;0.90;0.20;;;;;;;35.31;69.94;98060.27;106345;1273;99501;-60
2023/07/25 09:25:49;;;;;;;0.70;0.40;;;;;;;35.87;69.37;98049.02;106377;1274;22570;-59
2023/07/25 09:28:18;;;;;;;1.10;0.50;;;;;;;36.80;67.98;98048.50;106411;1273;99165;-60
2023/07/25 09:30:51;;;;;;;1.50;0.60;;;;;;;37.10;64.61;98049.92;106467;1276;25567;-66
2023/07/25 09:33:25;;;;;;;1.40;0.50;;;;;;;36.66;62.89;98046.44;106328;1273;24263;-58
2023/07/25 09:35:54;;;;;;;1.30;0.60;;;;;;;35.25;61.40;98053.02;106338;1275;99156;-58
2023/07/25 09:38:25;;;;;;;1.60;0.70;;;;;;;33.89;59.99;98067.59;106566;1276;25302;-59
2023/07/25 09:40:54;;;;;;;1.20;0.40;;;;;;;32.26;59.44;98074.84;106494;1267;99502;-59
2023/07/25 09:43:27;;;;;;;1.10;0.50;;;;;;;30.68;59.63;98073.36;106517;1273;22533;-59
2023/07/25 09:46:01;;;;;;;3.00;0.50;;;;;;;29.51;59.05;98075.13;106465;1273;99183;-58
2023/07/25 09:48:32;;;;;;;2.60;0.50;;;;;;;28.42;59.13;98077.39;106510;1273;25322;-57
2023/07/25 09:51:03;;;;;;;1.60;0.60;;;;;;;27.60;59.33;98085.59;106488;1274;22593;-58
2023/07/25 09:53:32;;;;;;;2.10;0.90;;;;;;;27.55;59.79;98088.65;106491;1269;98995;-57
2023/07/25 09:56:03;;;;;;;2.00;0.60;;;;;;;27.48;59.02;98092.31;106444;1273;25350;-57
2023/07/25 09:58:33;;;;;;;1.50;0.50;;;;;;;27.45;60.42;98089.23;106285;1273;99423;-60
2023/07/25 10:01:05;;;;;;;2.10;0.70;;;;;;;28.46;58.97;98079.88;106455;1273;22537;-58
2023/07/25 10:03:35;;;;;;;2.20;0.40;;;;;;;28.13;57.17;98079.91;106411;1274;22534;-63
2023/07/25 10:06:07;;;;;;;2.30;0.30;;;;;;;27.97;58.78;98081.69;106389;1277;99047;-64
2023/07/25 10:08:38;;;;;;;2.80;0.70;;;;;;;29.62;59.71;98084.17;106372;1273;22531;-58
2023/07/25 10:11:08;;;;;;;2.00;0.70;;;;;;;31.10;58.58;98085.24;106431;1276;98971;-57
2023/07/25 10:13:36;;;;;;;1.60;0.30;;;;;;;31.70;56.77;98091.38;106421;1273;22546;-58
2023/07/25 10:16:07;;;;;;;0.80;0.20;;;;;;;31.41;54.68;98095.80;106378;1273;99249;-61
2023/07/25 10:18:36;;;;;;;0.80;0.30;;;;;;;32.63;56.96;98095.88;106414;1273;22553;-58
2023/07/25 10:21:08;;;;;;;0.50;0.20;;;;;;;33.40;54.68;98102.50;106532;1274;25394;-60
2023/07/25 10:23:37;;;;;;;0.90;0.60;;;;;;;33.00;53.49;98107.67;106359;1273;99090;-57
2023/07/25 10:26:13;;;;;;;1.30;0.30;;;;;;;31.79;53.80;98115.02;106404;1280;22552;-57
2023/07/25 10:28:43;;;;;;;6.90;0.40;;;;;;;31.81;54.52;98116.25;106310;1273;98944;-57
2023/07/25 10:31:33;;;;;;;1.40;0.60;;;;;;;31.90;53.32;98117.18;106397;1273;25248;-58
2023/07/25 10:34:04;;;;;;;0.80;0.30;;;;;;;31.99;53.93;98120.46;106561;1273;99351;-59
2023/07/25 10:36:33;;;;;;;1.60;0.40;;;;;;;33.48;55.49;98117.73;106598;1273;24539;-59
2023/07/25 10:39:09;;;;;;;1.20;0.40;;;;;;;35.13;53.86;98116.35;106331;1274;25491;-62
2023/07/25 10:41:38;;;;;;;3.00;0.40;;;;;;;36.11;51.48;98115.11;106278;1273;99153;-59
2023/07/25 10:44:07;;;;;;;1.20;0.50;;;;;;;35.22;48.24;98119.83;106517;1276;22536;-60
2023/07/25 10:46:36;;;;;;;2.90;0.40;;;;;;;33.70;48.33;98124.73;106298;1273;99336;-57
2023/07/25 10:49:16;;;;;;;1.10;0.30;;;;;;;32.47;48.08;98126.48;106337;1273;22571;-60
2023/07/25 10:51:50;;;;;;;0.60;0.40;;;;;;;31.17;47.84;98130.55;106400;1272;25312;-58
2023/07/25 10:54:22;;;;;;;2.20;0.40;;;;;;;29.47;47.14;98142.09;107057;1273;25451;-63
2023/07/25 10:57:10;;;;;;;2.30;0.50;;;;;;;27.54;46.18;98158.39;106343;1273;23922;-58
2023/07/25 11:00:04;;;;;;;1.30;0.40;;;;;;;25.84;47.14;98175.56;106496;1273;99163;-58
2023/07/25 11:02:42;;;;;;;2.20;0.30;;;;;;;24.78;47.84;98182.04;106591;1274;25492;-59
2023/07/25 11:05:14;;;;;;;2.10;0.40;;;;;;;24.02;47.99;98190.57;106382;1273;99334;-56
2023/07/25 11:07:46;;;;;;;0.40;0.10;;;;;;;23.45;48.18;98181.98;106693;1273;23637;-63
2023/07/25 11:10:22;;;;;;;2.90;0.40;;;;;;;23.16;48.99;98183.45;106448;1272;99378;-55
2023/07/25 11:12:57;;;;;;;3.60;0.30;;;;;;;23.70;49.14;98175.80;106541;1274;24462;-57
2023/07/25 11:15:26;;;;;;;1.80;0.30;;;;;;;24.06;48.70;98175.05;106378;1277;25300;-57
2023/07/25 11:18:14;;;;;;;2.60;0.30;;;;;;;24.11;48.95;98178.24;106440;1272;99493;-58
2023/07/25 11:20:43;;;;;;;3.20;0.40;;;;;;;24.53;49.62;98176.52;106642;1273;24257;-58
2023/07/25 11:23:12;;;;;;;2.00;0.50;;;;;;;24.97;49.43;98176.55;106354;1274;99330;-58
2023/07/25 11:25:41;;;;;;;1.80;0.20;;;;;;;25.07;49.18;98172.45;106505;1273;24418;-58
2023/07/25 11:28:09;;;;;;;0.40;0.30;;;;;;;25.00;49.56;98168.30;106477;1274;100271;-57
2023/07/25 11:30:43;;;;;;;2.00;0.30;;;;;;;24.81;49.68;98164.84;106604;1273;22589;-63
2023/07/25 11:33:12;;;;;;;1.50;0.30;;;;;;;24.51;50.03;98156.04;106489;1272;25355;-59